Time;durP1;ratioP1;P1;durP2;ratioP2;P2;SDS_P1;SDS_P2;PMS_P1;PMS_P2;Temp;Humidity;BMP_temperature;BMP_pressure;BME280_temperature;BME280_humidity;BME280_pressure;Samples;Min_cycle;Max_cycle;Signal;HPM_P1;HPM_P2
2023/02/11 00:00:08;;;;;;;36.60;30.77;;;;;;;;;;516031;28;1549;-77
2023/02/11 00:00:23;;;;;;;38.58;31.33;;;;;;;;;;517713;28;1456;-77
2023/02/11 00:00:40;;;;;;;37.13;31.05;;;;;;;;;;516837;28;1311;-77
2023/02/11 00:00:55;;;;;;;35.10;30.40;;;;;;;;;;515584;28;1490;-77
2023/02/11 00:01:19;;;;;;;35.57;30.60;;;;;;;;;;517573;28;1170;-77
2023/02/11 00:01:36;;;;;;;35.58;30.17;;;;;;;;;;517423;28;1418;-77
2023/02/11 00:01:51;;;;;;;35.58;30.50;;;;;;;;;;515634;28;1291;-77
2023/02/11 00:02:07;;;;;;;34.72;30.13;;;;;;;;;;515906;28;1310;-77
2023/02/11 00:02:22;;;;;;;34.70;30.27;;;;;;;;;;516344;28;1367;-77
2023/02/11 00:02:37;;;;;;;37.55;31.02;;;;;;;;;;517194;28;1114;-77
2023/02/11 00:02:53;;;;;;;37.70;31.03;;;;;;;;;;517027;28;1330;-76
2023/02/11 00:03:08;;;;;;;35.73;30.67;;;;;;;;;;516031;28;1501;-77
2023/02/11 00:03:24;;;;;;;36.95;31.25;;;;;;;;;;514631;28;1299;-77
2023/02/11 00:03:39;;;;;;;37.05;31.52;;;;;;;;;;515954;28;1373;-77
2023/02/11 00:03:56;;;;;;;35.93;30.90;;;;;;;;;;516174;28;1466;-77
2023/02/11 00:04:12;;;;;;;36.13;30.95;;;;;;;;;;515006;28;1532;-77
2023/02/11 00:04:27;;;;;;;36.67;31.07;;;;;;;;;;519289;28;1256;-77
2023/02/11 00:04:42;;;;;;;36.28;31.27;;;;;;;;;;517507;28;1486;-77
2023/02/11 00:05:00;;;;;;;35.27;31.33;;;;;;;;;;516598;28;1365;-77
2023/02/11 00:05:15;;;;;;;34.40;30.52;;;;;;;;;;518006;28;1402;-77
2023/02/11 00:05:31;;;;;;;36.90;30.57;;;;;;;;;;516734;28;1325;-77
2023/02/11 00:05:56;;;;;;;39.03;31.00;;;;;;;;;;516945;28;1365;-77
2023/02/11 00:06:11;;;;;;;38.03;31.25;;;;;;;;;;519814;28;1133;-77
2023/02/11 00:06:28;;;;;;;36.47;30.37;;;;;;;;;;517139;28;1257;-77
2023/02/11 00:06:44;;;;;;;34.50;29.80;;;;;;;;;;519306;28;1409;-77
2023/02/11 00:06:59;;;;;;;34.70;29.67;;;;;;;;;;517743;28;1349;-77
2023/02/11 00:07:14;;;;;;;34.60;29.33;;;;;;;;;;518968;28;1285;-76
2023/02/11 00:07:33;;;;;;;33.83;29.60;;;;;;;;;;518311;28;1503;-77
2023/02/11 00:07:49;;;;;;;34.90;30.55;;;;;;;;;;515996;28;1352;-77
2023/02/11 00:08:04;;;;;;;36.83;30.80;;;;;;;;;;518962;28;1505;-77
2023/02/11 00:08:19;;;;;;;37.73;31.17;;;;;;;;;;518563;28;1306;-76
2023/02/11 00:08:35;;;;;;;36.23;31.23;;;;;;;;;;519768;28;1772;-77
2023/02/11 00:08:50;;;;;;;36.22;30.50;;;;;;;;;;516688;28;1390;-77
2023/02/11 00:09:06;;;;;;;37.67;30.57;;;;;;;;;;516934;28;1376;-77
2023/02/11 00:09:22;;;;;;;37.22;30.73;;;;;;;;;;519155;28;1193;-77
2023/02/11 00:09:37;;;;;;;35.15;30.73;;;;;;;;;;516094;28;1189;-77
2023/02/11 00:09:52;;;;;;;35.27;30.80;;;;;;;;;;515733;28;1281;-77
2023/02/11 00:10:08;;;;;;;36.80;30.80;;;;;;;;;;515501;28;1907;-76
2023/02/11 00:10:23;;;;;;;36.63;30.77;;;;;;;;;;515741;28;1200;-77
2023/02/11 00:10:38;;;;;;;35.23;30.30;;;;;;;;;;516588;28;1206;-77
2023/02/11 00:10:55;;;;;;;36.10;30.50;;;;;;;;;;515083;28;1207;-77
2023/02/11 00:11:13;;;;;;;37.58;31.13;;;;;;;;;;515134;28;1335;-77
2023/02/11 00:11:29;;;;;;;36.45;31.33;;;;;;;;;;516689;28;1397;-77
2023/02/11 00:11:44;;;;;;;35.20;30.40;;;;;;;;;;515490;28;1450;-77
2023/02/11 00:12:00;;;;;;;34.38;30.33;;;;;;;;;;515224;28;1298;-77
2023/02/11 00:12:18;;;;;;;34.10;29.67;;;;;;;;;;517960;28;1184;-77
2023/02/11 00:12:35;;;;;;;35.45;30.05;;;;;;;;;;515143;28;1384;-77
2023/02/11 00:12:50;;;;;;;36.22;30.98;;;;;;;;;;517370;28;1446;-77
2023/02/11 00:13:05;;;;;;;36.20;30.70;;;;;;;;;;516965;28;1523;-77
2023/02/11 00:13:21;;;;;;;37.30;30.58;;;;;;;;;;518238;28;1329;-77
2023/02/11 00:13:37;;;;;;;36.67;30.65;;;;;;;;;;517496;28;1368;-77
2023/02/11 00:13:52;;;;;;;35.27;30.53;;;;;;;;;;518979;28;1168;-77
2023/02/11 00:14:09;;;;;;;34.17;30.17;;;;;;;;;;519427;28;1246;-77
2023/02/11 00:14:25;;;;;;;35.30;30.63;;;;;;;;;;521562;28;1276;-77
2023/02/11 00:14:40;;;;;;;36.38;30.98;;;;;;;;;;517800;28;1242;-77
2023/02/11 00:14:56;;;;;;;35.50;30.83;;;;;;;;;;519798;28;1222;-76
2023/02/11 00:15:11;;;;;;;35.50;30.60;;;;;;;;;;519743;28;1294;-77
2023/02/11 00:15:26;;;;;;;36.05;30.80;;;;;;;;;;518728;28;1313;-77
2023/02/11 00:15:42;;;;;;;35.40;30.67;;;;;;;;;;519510;28;1401;-77
2023/02/11 00:15:57;;;;;;;35.63;30.53;;;;;;;;;;519707;28;1283;-77
2023/02/11 00:16:15;;;;;;;36.92;31.15;;;;;;;;;;523017;28;1503;-77
2023/02/11 00:16:31;;;;;;;35.95;30.67;;;;;;;;;;519303;28;1407;-77
2023/02/11 00:16:46;;;;;;;38.53;30.40;;;;;;;;;;519014;28;1338;-77
2023/02/11 00:17:02;;;;;;;38.87;30.70;;;;;;;;;;517250;28;1304;-77
2023/02/11 00:17:17;;;;;;;35.13;30.50;;;;;;;;;;515175;28;1424;-77
2023/02/11 00:17:32;;;;;;;36.07;30.90;;;;;;;;;;518362;28;1215;-77
2023/02/11 00:17:48;;;;;;;37.27;31.20;;;;;;;;;;520274;28;1334;-77
2023/02/11 00:18:03;;;;;;;36.15;30.55;;;;;;;;;;519520;28;1153;-77
2023/02/11 00:18:19;;;;;;;36.70;30.50;;;;;;;;;;517676;28;1339;-77
2023/02/11 00:18:35;;;;;;;37.55;31.35;;;;;;;;;;520687;28;1460;-77
2023/02/11 00:18:52;;;;;;;37.25;31.55;;;;;;;;;;518696;28;1340;-77
2023/02/11 00:19:08;;;;;;;35.20;29.92;;;;;;;;;;516053;28;1237;-77
2023/02/11 00:19:23;;;;;;;34.72;29.75;;;;;;;;;;514646;28;1311;-77
2023/02/11 00:19:39;;;;;;;35.80;30.87;;;;;;;;;;516902;28;1185;-77
2023/02/11 00:19:54;;;;;;;35.67;31.20;;;;;;;;;;517955;28;1207;-77
2023/02/11 00:20:10;;;;;;;35.40;30.67;;;;;;;;;;517664;28;1142;-77
2023/02/11 00:20:25;;;;;;;35.72;30.20;;;;;;;;;;515669;28;1306;-77
2023/02/11 00:20:41;;;;;;;35.47;30.00;;;;;;;;;;518338;28;1196;-77
2023/02/11 00:20:56;;;;;;;35.67;29.92;;;;;;;;;;519973;28;1316;-77
2023/02/11 00:21:17;;;;;;;36.20;30.20;;;;;;;;;;521198;28;1456;-77
2023/02/11 00:21:34;;;;;;;35.28;29.92;;;;;;;;;;515736;28;1255;-77
2023/02/11 00:21:49;;;;;;;36.35;30.92;;;;;;;;;;520481;28;1336;-77
2023/02/11 00:22:05;;;;;;;37.20;31.10;;;;;;;;;;519752;28;1374;-77
2023/02/11 00:22:21;;;;;;;35.97;30.73;;;;;;;;;;516502;28;1421;-77
2023/02/11 00:22:36;;;;;;;34.53;30.35;;;;;;;;;;519026;28;1287;-77
2023/02/11 00:22:51;;;;;;;35.20;30.20;;;;;;;;;;515691;28;1213;-77
2023/02/11 00:23:07;;;;;;;35.20;30.13;;;;;;;;;;519604;28;1184;-77
2023/02/11 00:23:22;;;;;;;35.10;30.15;;;;;;;;;;519372;28;1248;-77
2023/02/11 00:23:38;;;;;;;34.50;30.13;;;;;;;;;;520850;28;1294;-77
2023/02/11 00:23:55;;;;;;;34.35;30.20;;;;;;;;;;520118;28;1371;-77
2023/02/11 00:24:11;;;;;;;34.70;30.15;;;;;;;;;;517268;28;1351;-77
2023/02/11 00:24:26;;;;;;;35.17;30.30;;;;;;;;;;522184;28;1266;-77
2023/02/11 00:24:42;;;;;;;35.47;30.27;;;;;;;;;;519637;28;1325;-77
2023/02/11 00:24:57;;;;;;;34.53;30.20;;;;;;;;;;520469;28;1322;-77
2023/02/11 00:25:12;;;;;;;34.63;30.50;;;;;;;;;;515217;28;1249;-77
2023/02/11 00:25:28;;;;;;;37.25;30.73;;;;;;;;;;520728;28;1233;-77
2023/02/11 00:25:44;;;;;;;36.97;30.40;;;;;;;;;;520188;28;1303;-77
2023/02/11 00:26:00;;;;;;;35.92;29.92;;;;;;;;;;520339;28;1345;-76
2023/02/11 00:26:21;;;;;;;35.53;30.03;;;;;;;;;;519036;28;1362;-77
2023/02/11 00:26:37;;;;;;;35.70;30.65;;;;;;;;;;517480;28;1394;-77
2023/02/11 00:26:52;;;;;;;45.97;31.23;;;;;;;;;;514834;28;1331;-77
2023/02/11 00:27:07;;;;;;;45.65;30.52;;;;;;;;;;517519;28;1219;-77
2023/02/11 00:27:23;;;;;;;35.27;30.37;;;;;;;;;;517326;28;1356;-77
2023/02/11 00:27:38;;;;;;;35.90;30.87;;;;;;;;;;517790;28;1196;-77
2023/02/11 00:27:53;;;;;;;37.40;31.35;;;;;;;;;;517517;28;1248;-76
2023/02/11 00:28:10;;;;;;;37.37;31.50;;;;;;;;;;513878;28;1168;-76
2023/02/11 00:28:25;;;;;;;36.63;30.75;;;;;;;;;;514075;28;1427;-77
2023/02/11 00:28:41;;;;;;;35.57;30.50;;;;;;;;;;515822;28;1348;-77
2023/02/11 00:28:57;;;;;;;36.85;30.48;;;;;;;;;;516490;28;1276;-77
2023/02/11 00:29:13;;;;;;;37.00;30.27;;;;;;;;;;516101;28;1280;-78
2023/02/11 00:29:28;;;;;;;35.25;30.35;;;;;;;;;;517948;28;1433;-77
2023/02/11 00:29:44;;;;;;;35.57;30.77;;;;;;;;;;516255;28;1473;-77
2023/02/11 00:30:01;;;;;;;36.27;30.90;;;;;;;;;;520692;28;1939;-77
2023/02/11 00:30:16;;;;;;;36.92;30.90;;;;;;;;;;519530;28;1574;-77
2023/02/11 00:30:31;;;;;;;35.47;30.73;;;;;;;;;;519784;28;1314;-77
2023/02/11 00:30:53;;;;;;;34.43;30.40;;;;;;;;;;517833;28;1192;-78
2023/02/11 00:31:09;;;;;;;35.17;30.50;;;;;;;;;;519975;28;1260;-77
2023/02/11 00:31:25;;;;;;;35.42;30.60;;;;;;;;;;518150;28;1268;-77
2023/02/11 00:31:41;;;;;;;34.88;30.35;;;;;;;;;;516420;28;1416;-77
2023/02/11 00:31:56;;;;;;;35.77;30.37;;;;;;;;;;519589;28;1252;-77
2023/02/11 00:32:11;;;;;;;38.17;30.77;;;;;;;;;;518893;28;1261;-77
2023/02/11 00:32:27;;;;;;;37.77;31.03;;;;;;;;;;518491;28;1241;-77
2023/02/11 00:32:42;;;;;;;35.60;30.48;;;;;;;;;;518147;28;1296;-77
2023/02/11 00:32:57;;;;;;;34.97;30.27;;;;;;;;;;519839;28;1781;-77
2023/02/11 00:33:13;;;;;;;35.03;30.60;;;;;;;;;;519387;28;1196;-77
2023/02/11 00:33:28;;;;;;;35.67;30.70;;;;;;;;;;519035;28;1409;-77
2023/02/11 00:33:44;;;;;;;36.27;30.37;;;;;;;;;;519825;28;1200;-77
2023/02/11 00:33:59;;;;;;;36.10;29.75;;;;;;;;;;522980;28;1310;-77
2023/02/11 00:34:14;;;;;;;35.80;30.03;;;;;;;;;;519753;28;1353;-77
2023/02/11 00:34:31;;;;;;;36.53;30.67;;;;;;;;;;518087;28;1261;-77
2023/02/11 00:34:46;;;;;;;37.15;30.70;;;;;;;;;;517465;28;1434;-77
2023/02/11 00:35:02;;;;;;;37.70;30.73;;;;;;;;;;518860;28;1317;-77
2023/02/11 00:35:17;;;;;;;36.20;30.70;;;;;;;;;;517817;28;1571;-77
2023/02/11 00:35:32;;;;;;;36.63;30.87;;;;;;;;;;517705;28;1245;-77
2023/02/11 00:35:48;;;;;;;37.97;30.57;;;;;;;;;;518599;28;1197;-77
2023/02/11 00:36:15;;;;;;;37.88;30.60;;;;;;;;;;520722;28;1218;-77
2023/02/11 00:36:30;;;;;;;35.67;30.70;;;;;;;;;;521386;28;1287;-77
2023/02/11 00:36:45;;;;;;;35.20;30.30;;;;;;;;;;519871;28;1317;-76
2023/02/11 00:37:01;;;;;;;35.10;30.40;;;;;;;;;;521951;28;1387;-77
2023/02/11 00:37:17;;;;;;;35.58;30.75;;;;;;;;;;520801;28;1422;-77
2023/02/11 00:37:35;;;;;;;35.60;31.00;;;;;;;;;;518526;28;1529;-77
2023/02/11 00:37:52;;;;;;;36.22;31.33;;;;;;;;;;517945;28;1452;-77
2023/02/11 00:38:08;;;;;;;35.90;30.90;;;;;;;;;;517658;28;1276;-76
2023/02/11 00:38:23;;;;;;;35.30;30.33;;;;;;;;;;520014;28;1321;-76
2023/02/11 00:38:39;;;;;;;36.17;30.87;;;;;;;;;;519990;28;1359;-76
2023/02/11 00:38:56;;;;;;;36.07;30.90;;;;;;;;;;520608;28;1538;-77
2023/02/11 00:39:11;;;;;;;36.88;30.58;;;;;;;;;;517355;28;1427;-77
2023/02/11 00:39:27;;;;;;;36.45;30.88;;;;;;;;;;517134;28;1428;-77
2023/02/11 00:39:42;;;;;;;34.70;30.57;;;;;;;;;;516154;28;1224;-77
2023/02/11 00:39:57;;;;;;;34.73;30.70;;;;;;;;;;517100;28;1257;-77
2023/02/11 00:40:14;;;;;;;36.00;31.00;;;;;;;;;;514348;28;1323;-77
2023/02/11 00:40:30;;;;;;;36.40;30.95;;;;;;;;;;513656;28;1534;-77
2023/02/11 00:40:45;;;;;;;36.60;30.87;;;;;;;;;;517878;28;1367;-77
2023/02/11 00:41:01;;;;;;;35.83;30.95;;;;;;;;;;518264;28;1243;-77
2023/02/11 00:41:17;;;;;;;34.90;30.80;;;;;;;;;;517364;28;1229;-77
2023/02/11 00:41:32;;;;;;;34.00;30.15;;;;;;;;;;514688;28;1278;-77
2023/02/11 00:41:48;;;;;;;33.80;29.98;;;;;;;;;;517838;28;1260;-77
2023/02/11 00:42:03;;;;;;;34.80;30.03;;;;;;;;;;519065;28;1261;-77
2023/02/11 00:42:19;;;;;;;35.72;30.20;;;;;;;;;;517920;28;1162;-77
2023/02/11 00:42:37;;;;;;;35.60;30.23;;;;;;;;;;515117;28;1195;-77
2023/02/11 00:42:52;;;;;;;35.33;30.23;;;;;;;;;;518145;28;1434;-77
2023/02/11 00:43:07;;;;;;;36.60;30.50;;;;;;;;;;519573;28;1416;-77
2023/02/11 00:43:23;;;;;;;35.87;30.50;;;;;;;;;;519011;28;1313;-77
2023/02/11 00:43:39;;;;;;;34.28;30.27;;;;;;;;;;519968;28;1262;-77
2023/02/11 00:43:54;;;;;;;34.15;30.35;;;;;;;;;;519845;28;1386;-77
2023/02/11 00:44:10;;;;;;;36.20;30.40;;;;;;;;;;519505;28;1277;-77
2023/02/11 00:44:25;;;;;;;37.72;30.63;;;;;;;;;;520444;28;1416;-77
2023/02/11 00:44:40;;;;;;;35.87;30.47;;;;;;;;;;517473;28;1340;-76
2023/02/11 00:44:56;;;;;;;34.83;30.63;;;;;;;;;;515499;28;1509;-77
2023/02/11 00:45:12;;;;;;;36.97;31.63;;;;;;;;;;515754;28;1182;-77
2023/02/11 00:45:29;;;;;;;37.50;31.75;;;;;;;;;;515521;28;1239;-77
2023/02/11 00:45:44;;;;;;;38.47;31.90;;;;;;;;;;517823;28;1442;-78
2023/02/11 00:46:00;;;;;;;38.13;31.37;;;;;;;;;;518060;28;1299;-77
2023/02/11 00:46:15;;;;;;;35.58;30.45;;;;;;;;;;520509;28;1318;-77
2023/02/11 00:46:33;;;;;;;37.07;30.80;;;;;;;;;;518452;28;1259;-77
2023/02/11 00:46:48;;;;;;;39.15;31.98;;;;;;;;;;515614;28;1421;-77
2023/02/11 00:47:04;;;;;;;37.83;31.90;;;;;;;;;;517399;28;1254;-77
2023/02/11 00:47:19;;;;;;;36.08;31.40;;;;;;;;;;515213;28;1413;-77
2023/02/11 00:47:35;;;;;;;35.70;31.20;;;;;;;;;;516292;28;1234;-77
2023/02/11 00:47:50;;;;;;;35.67;30.85;;;;;;;;;;515205;28;1191;-77
2023/02/11 00:48:05;;;;;;;35.27;30.77;;;;;;;;;;516008;28;1204;-76
2023/02/11 00:48:21;;;;;;;35.07;30.43;;;;;;;;;;515826;28;1192;-77
2023/02/11 00:48:36;;;;;;;35.85;30.60;;;;;;;;;;514970;28;1219;-76
2023/02/11 00:48:56;;;;;;;35.90;30.98;;;;;;;;;;516393;28;1450;-77
2023/02/11 00:49:12;;;;;;;36.13;31.35;;;;;;;;;;516538;28;1388;-76
2023/02/11 00:49:27;;;;;;;35.42;31.25;;;;;;;;;;516223;28;1374;-76
2023/02/11 00:49:43;;;;;;;36.58;30.80;;;;;;;;;;516401;28;1315;-77
2023/02/11 00:49:59;;;;;;;35.63;30.63;;;;;;;;;;516848;28;1950;-76
2023/02/11 00:50:15;;;;;;;35.45;30.77;;;;;;;;;;515309;28;1077;-76
2023/02/11 00:50:30;;;;;;;35.43;31.20;;;;;;;;;;518558;28;1372;-77
2023/02/11 00:50:45;;;;;;;34.67;30.53;;;;;;;;;;518111;28;1275;-77
2023/02/11 00:51:03;;;;;;;34.83;29.63;;;;;;;;;;519223;28;1357;-76
2023/02/11 00:51:18;;;;;;;34.88;30.05;;;;;;;;;;521472;28;1469;-76
2023/02/11 00:51:33;;;;;;;34.43;30.10;;;;;;;;;;521392;28;1198;-76
2023/02/11 00:51:48;;;;;;;36.65;30.75;;;;;;;;;;520962;28;1203;-76
2023/02/11 00:52:04;;;;;;;38.00;31.23;;;;;;;;;;519436;28;1328;-76
2023/02/11 00:52:19;;;;;;;37.53;31.03;;;;;;;;;;517779;28;1358;-76
2023/02/11 00:52:34;;;;;;;37.65;31.08;;;;;;;;;;518004;28;1097;-77
2023/02/11 00:52:50;;;;;;;36.43;30.77;;;;;;;;;;520273;28;1286;-77
2023/02/11 00:53:05;;;;;;;35.97;31.20;;;;;;;;;;521596;28;1327;-76
2023/02/11 00:53:20;;;;;;;35.83;31.45;;;;;;;;;;519842;28;1356;-77
2023/02/11 00:53:36;;;;;;;34.40;30.53;;;;;;;;;;518223;28;1297;-77
2023/02/11 00:53:52;;;;;;;35.33;29.92;;;;;;;;;;517323;28;1315;-77
2023/02/11 00:54:07;;;;;;;36.87;30.80;;;;;;;;;;515270;28;1229;-76
2023/02/11 00:54:22;;;;;;;35.58;31.08;;;;;;;;;;518194;28;1608;-77
2023/02/11 00:54:38;;;;;;;34.70;30.50;;;;;;;;;;517970;28;1247;-77
2023/02/11 00:54:53;;;;;;;35.90;30.23;;;;;;;;;;516532;28;1378;-77
2023/02/11 00:55:08;;;;;;;35.63;29.80;;;;;;;;;;516921;28;1446;-77
2023/02/11 00:55:24;;;;;;;35.07;30.43;;;;;;;;;;517344;28;1374;-76
2023/02/11 00:55:39;;;;;;;34.33;30.43;;;;;;;;;;517381;28;1446;-76
2023/02/11 00:55:54;;;;;;;33.50;29.55;;;;;;;;;;517019;28;1295;-76
2023/02/11 00:56:10;;;;;;;34.60;29.90;;;;;;;;;;520306;28;1428;-76
2023/02/11 00:56:25;;;;;;;35.27;30.77;;;;;;;;;;520682;28;1469;-77
2023/02/11 00:56:41;;;;;;;35.85;31.08;;;;;;;;;;518191;28;1188;-76
2023/02/11 00:56:56;;;;;;;36.03;30.92;;;;;;;;;;523437;28;1337;-76
2023/02/11 00:57:11;;;;;;;36.93;31.00;;;;;;;;;;521999;28;1034;-76
2023/02/11 00:57:27;;;;;;;37.20;30.90;;;;;;;;;;521435;28;1165;-77
2023/02/11 00:57:42;;;;;;;35.78;30.80;;;;;;;;;;521102;28;1201;-76
2023/02/11 00:57:58;;;;;;;36.67;31.40;;;;;;;;;;519172;28;1236;-77
2023/02/11 00:58:26;;;;;;;39.28;31.65;;;;;;;;;;215663;28;10000822;-77
2023/02/11 00:58:41;;;;;;;38.45;31.75;;;;;;;;;;520722;28;1388;-76
2023/02/11 00:58:56;;;;;;;39.40;31.90;;;;;;;;;;516515;28;1295;-76
2023/02/11 00:59:12;;;;;;;37.10;31.33;;;;;;;;;;518156;28;1323;-77
2023/02/11 00:59:27;;;;;;;35.83;31.55;;;;;;;;;;519505;28;1192;-76
2023/02/11 00:59:42;;;;;;;37.10;31.70;;;;;;;;;;517566;28;1429;-76
2023/02/11 00:59:58;;;;;;;36.20;30.93;;;;;;;;;;517652;28;1223;-76
2023/02/11 01:00:13;;;;;;;35.77;30.90;;;;;;;;;;519592;28;1228;-77
2023/02/11 01:00:29;;;;;;;36.75;31.90;;;;;;;;;;521212;28;1387;-77
2023/02/11 01:00:44;;;;;;;37.03;31.67;;;;;;;;;;518763;28;1368;-77
2023/02/11 01:01:00;;;;;;;35.30;30.43;;;;;;;;;;519112;28;1187;-76
2023/02/11 01:01:15;;;;;;;34.63;30.73;;;;;;;;;;520998;28;1251;-76
2023/02/11 01:01:30;;;;;;;35.43;31.10;;;;;;;;;;519047;28;1301;-77
2023/02/11 01:01:45;;;;;;;36.77;31.90;;;;;;;;;;516493;28;1295;-77
2023/02/11 01:02:01;;;;;;;36.88;32.35;;;;;;;;;;517453;28;1429;-77
2023/02/11 01:02:17;;;;;;;36.43;31.50;;;;;;;;;;519326;28;1275;-76
2023/02/11 01:02:32;;;;;;;36.63;31.02;;;;;;;;;;518929;28;1097;-76
2023/02/11 01:02:47;;;;;;;34.93;30.73;;;;;;;;;;517925;28;1216;-76
2023/02/11 01:03:03;;;;;;;33.25;29.65;;;;;;;;;;515672;28;1338;-76
2023/02/11 01:03:18;;;;;;;34.17;30.10;;;;;;;;;;517211;28;1297;-77
2023/02/11 01:03:34;;;;;;;36.50;31.47;;;;;;;;;;515407;28;1530;-76
2023/02/11 01:03:50;;;;;;;35.65;31.10;;;;;;;;;;517055;28;1233;-76
2023/02/11 01:04:05;;;;;;;36.03;31.23;;;;;;;;;;521256;28;1372;-76
2023/02/11 01:04:20;;;;;;;38.13;31.90;;;;;;;;;;520258;28;1331;-77
2023/02/11 01:04:36;;;;;;;37.03;31.40;;;;;;;;;;519976;28;1375;-77
2023/02/11 01:04:51;;;;;;;35.87;31.33;;;;;;;;;;516378;28;1283;-76
2023/02/11 01:05:07;;;;;;;36.47;31.63;;;;;;;;;;515455;28;1159;-76
2023/02/11 01:05:22;;;;;;;36.63;31.97;;;;;;;;;;516854;28;1234;-76
2023/02/11 01:05:37;;;;;;;38.42;33.05;;;;;;;;;;517593;28;1217;-76
2023/02/11 01:05:53;;;;;;;38.50;33.17;;;;;;;;;;516950;28;1392;-76
2023/02/11 01:06:08;;;;;;;35.93;31.70;;;;;;;;;;518872;28;1450;-76
2023/02/11 01:06:24;;;;;;;36.30;31.13;;;;;;;;;;520729;28;1320;-76
2023/02/11 01:06:39;;;;;;;36.33;31.57;;;;;;;;;;519971;28;1276;-76
2023/02/11 01:06:54;;;;;;;35.88;31.95;;;;;;;;;;522484;28;1360;-76
2023/02/11 01:07:10;;;;;;;37.63;32.03;;;;;;;;;;519895;28;1246;-76
2023/02/11 01:07:26;;;;;;;37.73;32.47;;;;;;;;;;519675;28;1263;-76
2023/02/11 01:07:42;;;;;;;37.58;32.60;;;;;;;;;;516465;28;1373;-76
2023/02/11 01:07:57;;;;;;;37.13;32.30;;;;;;;;;;515865;28;1417;-76
2023/02/11 01:08:13;;;;;;;36.17;32.28;;;;;;;;;;515757;28;1188;-77
2023/02/11 01:08:28;;;;;;;35.97;32.07;;;;;;;;;;517064;28;1247;-76
2023/02/11 01:08:44;;;;;;;36.50;31.88;;;;;;;;;;519283;28;1345;-76
2023/02/11 01:08:59;;;;;;;36.20;31.70;;;;;;;;;;518639;28;1199;-76
2023/02/11 01:09:14;;;;;;;37.20;31.95;;;;;;;;;;520128;28;1291;-76
2023/02/11 01:09:30;;;;;;;37.47;31.70;;;;;;;;;;519106;28;1371;-76
2023/02/11 01:09:45;;;;;;;36.23;31.40;;;;;;;;;;515682;28;1180;-76
2023/02/11 01:10:00;;;;;;;36.50;31.63;;;;;;;;;;515319;28;1910;-76
2023/02/11 01:10:16;;;;;;;36.33;31.13;;;;;;;;;;515487;28;1327;-76
2023/02/11 01:10:32;;;;;;;36.30;31.02;;;;;;;;;;517179;28;1307;-77
2023/02/11 01:11:06;;;;;;;36.08;31.00;;;;;;;;;;517863;28;1444;-76
2023/02/11 01:11:21;;;;;;;36.17;31.40;;;;;;;;;;518679;28;1267;-76
2023/02/11 01:11:37;;;;;;;36.10;31.33;;;;;;;;;;520469;28;1243;-78
2023/02/11 01:11:52;;;;;;;37.08;32.33;;;;;;;;;;521333;28;1226;-76
2023/02/11 01:12:07;;;;;;;37.87;32.23;;;;;;;;;;519702;28;1289;-76
2023/02/11 01:12:23;;;;;;;38.03;31.50;;;;;;;;;;520500;28;1337;-76
2023/02/11 01:12:39;;;;;;;36.92;31.25;;;;;;;;;;519167;28;1256;-76
2023/02/11 01:12:54;;;;;;;35.60;30.90;;;;;;;;;;518868;28;1489;-77
2023/02/11 01:13:10;;;;;;;36.43;30.83;;;;;;;;;;519747;28;1214;-77
2023/02/11 01:13:27;;;;;;;37.22;31.40;;;;;;;;;;519764;28;1230;-77
2023/02/11 01:13:42;;;;;;;35.75;31.08;;;;;;;;;;519103;28;1348;-76
2023/02/11 01:13:57;;;;;;;37.20;30.87;;;;;;;;;;518318;28;1188;-76
2023/02/11 01:14:13;;;;;;;37.55;31.30;;;;;;;;;;516888;28;1567;-77
2023/02/11 01:14:28;;;;;;;34.43;30.53;;;;;;;;;;516523;28;1437;-76
2023/02/11 01:14:44;;;;;;;35.90;30.73;;;;;;;;;;517703;28;1306;-76
2023/02/11 01:14:59;;;;;;;37.60;31.50;;;;;;;;;;518430;28;1264;-77
2023/02/11 01:15:16;;;;;;;36.47;31.60;;;;;;;;;;517817;28;1205;-76
2023/02/11 01:15:32;;;;;;;36.42;32.05;;;;;;;;;;520200;28;1250;-76
2023/02/11 01:15:47;;;;;;;36.70;32.10;;;;;;;;;;522515;28;1283;-76
2023/02/11 01:16:06;;;;;;;35.83;31.27;;;;;;;;;;516809;28;1475;-76
2023/02/11 01:16:22;;;;;;;37.17;30.98;;;;;;;;;;519801;28;1374;-76
2023/02/11 01:16:39;;;;;;;38.80;31.87;;;;;;;;;;517308;28;1357;-77
2023/02/11 01:16:55;;;;;;;37.40;31.95;;;;;;;;;;517454;28;1154;-77
2023/02/11 01:17:11;;;;;;;37.35;31.85;;;;;;;;;;517654;28;1385;-77
2023/02/11 01:17:26;;;;;;;38.17;31.75;;;;;;;;;;519067;28;1432;-76
2023/02/11 01:17:42;;;;;;;35.93;31.10;;;;;;;;;;520744;28;1453;-76
2023/02/11 01:17:57;;;;;;;35.67;31.38;;;;;;;;;;519068;28;1489;-77
2023/02/11 01:18:13;;;;;;;37.13;31.50;;;;;;;;;;517311;28;1493;-76
2023/02/11 01:18:28;;;;;;;36.03;30.70;;;;;;;;;;520761;28;1441;-79
2023/02/11 01:18:44;;;;;;;37.60;31.67;;;;;;;;;;517171;28;1290;-77
2023/02/11 01:19:00;;;;;;;38.03;32.00;;;;;;;;;;519075;28;1446;-77
2023/02/11 01:19:15;;;;;;;37.33;31.50;;;;;;;;;;515488;28;1244;-77
2023/02/11 01:19:30;;;;;;;37.78;31.88;;;;;;;;;;517794;28;1267;-77
2023/02/11 01:19:46;;;;;;;37.13;32.03;;;;;;;;;;517220;28;1294;-76
2023/02/11 01:20:05;;;;;;;35.97;31.53;;;;;;;;;;516636;28;1196;-77
2023/02/11 01:20:22;;;;;;;37.53;31.67;;;;;;;;;;518084;28;1480;-77
2023/02/11 01:20:38;;;;;;;37.58;31.63;;;;;;;;;;515460;28;1335;-76
2023/02/11 01:20:53;;;;;;;36.47;31.53;;;;;;;;;;515683;28;1156;-77
2023/02/11 01:21:09;;;;;;;36.65;31.60;;;;;;;;;;518753;28;1366;-76
2023/02/11 01:21:25;;;;;;;37.67;31.40;;;;;;;;;;516523;28;1303;-77
2023/02/11 01:21:40;;;;;;;37.38;30.95;;;;;;;;;;520445;28;1336;-77
2023/02/11 01:21:55;;;;;;;35.97;30.93;;;;;;;;;;514353;28;1387;-77
2023/02/11 01:22:11;;;;;;;37.47;30.93;;;;;;;;;;514873;28;1390;-77
2023/02/11 01:22:26;;;;;;;38.47;31.63;;;;;;;;;;515460;28;1327;-77
2023/02/11 01:22:41;;;;;;;37.97;31.80;;;;;;;;;;517638;28;1361;-77
2023/02/11 01:22:57;;;;;;;38.00;31.33;;;;;;;;;;520405;28;1254;-77
2023/02/11 01:23:12;;;;;;;36.47;31.35;;;;;;;;;;519936;28;1372;-77
2023/02/11 01:23:27;;;;;;;35.43;31.10;;;;;;;;;;520785;28;1302;-76
2023/02/11 01:23:43;;;;;;;36.43;31.37;;;;;;;;;;517577;28;1260;-76
2023/02/11 01:23:58;;;;;;;36.85;31.67;;;;;;;;;;515471;28;1388;-77
2023/02/11 01:24:14;;;;;;;36.37;31.77;;;;;;;;;;518252;28;1362;-77
2023/02/11 01:24:29;;;;;;;36.58;31.48;;;;;;;;;;515702;28;1338;-77
2023/02/11 01:24:44;;;;;;;36.83;31.43;;;;;;;;;;513255;28;1357;-77
2023/02/11 01:24:59;;;;;;;38.97;31.67;;;;;;;;;;517795;28;1187;-77
2023/02/11 01:25:15;;;;;;;38.20;31.27;;;;;;;;;;515635;28;1267;-77
2023/02/11 01:25:31;;;;;;;35.93;31.07;;;;;;;;;;517703;28;1349;-77
2023/02/11 01:25:46;;;;;;;37.70;31.13;;;;;;;;;;516609;28;1293;-77
2023/02/11 01:26:02;;;;;;;38.53;31.53;;;;;;;;;;516013;28;1234;-75
2023/02/11 01:26:17;;;;;;;37.88;32.15;;;;;;;;;;517226;28;1233;-78
2023/02/11 01:26:32;;;;;;;37.10;31.63;;;;;;;;;;518504;28;1420;-77
2023/02/11 01:26:48;;;;;;;37.25;31.38;;;;;;;;;;517388;28;1461;-77
2023/02/11 01:27:03;;;;;;;37.40;31.87;;;;;;;;;;516626;28;1508;-78
2023/02/11 01:27:18;;;;;;;36.97;31.60;;;;;;;;;;516394;28;1229;-76
2023/02/11 01:27:34;;;;;;;37.53;31.60;;;;;;;;;;516686;28;1283;-76
2023/02/11 01:27:49;;;;;;;38.47;31.70;;;;;;;;;;516060;28;1203;-77
2023/02/11 01:28:04;;;;;;;38.20;31.53;;;;;;;;;;517189;28;1296;-76
2023/02/11 01:28:23;;;;;;;37.92;31.85;;;;;;;;;;517761;28;1352;-77
2023/02/11 01:28:39;;;;;;;39.38;31.92;;;;;;;;;;515642;28;1514;-78
2023/02/11 01:28:54;;;;;;;37.40;31.73;;;;;;;;;;517097;28;1406;-77
2023/02/11 01:29:09;;;;;;;37.83;32.03;;;;;;;;;;518854;28;1189;-77
2023/02/11 01:29:25;;;;;;;38.67;31.98;;;;;;;;;;519726;28;1702;-77
2023/02/11 01:29:40;;;;;;;37.80;31.93;;;;;;;;;;518900;28;1230;-77
2023/02/11 01:29:55;;;;;;;37.88;32.20;;;;;;;;;;519821;28;1204;-77
2023/02/11 01:30:12;;;;;;;38.43;31.93;;;;;;;;;;517611;28;1910;-77
2023/02/11 01:30:28;;;;;;;38.22;31.52;;;;;;;;;;517532;28;1277;-77
2023/02/11 01:30:43;;;;;;;37.43;31.70;;;;;;;;;;519713;28;1255;-77
2023/02/11 01:31:00;;;;;;;36.78;32.17;;;;;;;;;;519995;28;1464;-77
2023/02/11 01:31:15;;;;;;;37.97;32.20;;;;;;;;;;516217;28;1431;-76
2023/02/11 01:31:31;;;;;;;37.67;31.90;;;;;;;;;;520485;28;1196;-77
2023/02/11 01:31:46;;;;;;;36.47;31.90;;;;;;;;;;521819;28;1346;-77
2023/02/11 01:32:02;;;;;;;36.88;31.88;;;;;;;;;;521627;28;1412;-76
2023/02/11 01:32:17;;;;;;;37.20;31.70;;;;;;;;;;518234;28;1316;-78
2023/02/11 01:32:33;;;;;;;37.08;31.50;;;;;;;;;;516260;28;1435;-77
2023/02/11 01:32:48;;;;;;;37.23;31.57;;;;;;;;;;517411;28;1317;-76
2023/02/11 01:33:03;;;;;;;37.50;31.65;;;;;;;;;;516273;28;1228;-77
2023/02/11 01:33:20;;;;;;;37.40;31.77;;;;;;;;;;517558;28;1299;-77
2023/02/11 01:33:35;;;;;;;37.63;32.05;;;;;;;;;;515392;28;1368;-77
2023/02/11 01:33:50;;;;;;;37.17;31.98;;;;;;;;;;516722;28;1248;-77
2023/02/11 01:34:06;;;;;;;37.80;31.43;;;;;;;;;;514863;28;1288;-76
2023/02/11 01:34:21;;;;;;;38.83;31.67;;;;;;;;;;518394;28;1425;-77
2023/02/11 01:34:37;;;;;;;38.03;31.93;;;;;;;;;;518126;28;1345;-77
2023/02/11 01:34:52;;;;;;;37.13;31.43;;;;;;;;;;520441;28;1251;-77
2023/02/11 01:35:07;;;;;;;38.22;31.67;;;;;;;;;;520088;28;1339;-76